sensor_id;sensor_type;location;lat;lon;timestamp;pressure;altitude;pressure_sealevel;temperature;humidity
54172;BME280;40076;52.354;4.970;2023-06-14T00:02:09;101617.41;;;22.56;54.75
54172;BME280;40076;52.354;4.970;2023-06-14T00:04:34;101617.34;;;22.52;54.18
54172;BME280;40076;52.354;4.970;2023-06-14T00:07:01;101624.44;;;22.50;53.75
54172;BME280;40076;52.354;4.970;2023-06-14T00:09:26;101618.88;;;22.43;52.75
54172;BME280;40076;52.354;4.970;2023-06-14T00:11:52;101618.03;;;22.39;52.38
54172;BME280;40076;52.354;4.970;2023-06-14T00:14:17;101619.56;;;22.36;52.09
54172;BME280;40076;52.354;4.970;2023-06-14T00:16:42;101616.44;;;22.34;51.83
54172;BME280;40076;52.354;4.970;2023-06-14T00:19:10;101619.91;;;22.27;51.53
54172;BME280;40076;52.354;4.970;2023-06-14T00:21:36;101617.06;;;22.20;51.29
54172;BME280;40076;52.354;4.970;2023-06-14T00:24:02;101621.81;;;22.20;51.17
54172;BME280;40076;52.354;4.970;2023-06-14T00:26:27;101619.00;;;22.16;51.13
54172;BME280;40076;52.354;4.970;2023-06-14T00:28:53;101619.38;;;22.15;50.87
54172;BME280;40076;52.354;4.970;2023-06-14T00:31:19;101618.19;;;22.12;51.02
54172;BME280;40076;52.354;4.970;2023-06-14T00:33:45;101617.41;;;22.12;50.85
54172;BME280;40076;52.354;4.970;2023-06-14T00:36:10;101616.59;;;22.11;50.85
54172;BME280;40076;52.354;4.970;2023-06-14T00:38:36;101610.31;;;22.11;50.47
54172;BME280;40076;52.354;4.970;2023-06-14T00:41:01;101613.44;;;22.09;50.75
54172;BME280;40076;52.354;4.970;2023-06-14T00:43:26;101611.84;;;22.08;51.00
54172;BME280;40076;52.354;4.970;2023-06-14T00:45:52;101616.94;;;22.06;50.80
54172;BME280;40076;52.354;4.970;2023-06-14T00:48:17;101624.78;;;22.04;50.78
54172;BME280;40076;52.354;4.970;2023-06-14T00:50:44;101616.13;;;22.02;50.72
54172;BME280;40076;52.354;4.970;2023-06-14T00:53:21;101622.38;;;21.99;50.84
54172;BME280;40076;52.354;4.970;2023-06-14T00:55:48;101619.19;;;21.97;51.05
54172;BME280;40076;52.354;4.970;2023-06-14T00:58:13;101625.84;;;21.96;51.09
54172;BME280;40076;52.354;4.970;2023-06-14T01:00:43;101618.34;;;21.93;51.05
54172;BME280;40076;52.354;4.970;2023-06-14T01:03:09;101620.66;;;21.91;51.29
54172;BME280;40076;52.354;4.970;2023-06-14T01:05:39;101618.28;;;21.89;51.31
54172;BME280;40076;52.354;4.970;2023-06-14T01:08:24;101617.09;;;21.87;51.20
54172;BME280;40076;52.354;4.970;2023-06-14T01:11:03;101616.69;;;21.85;51.05
54172;BME280;40076;52.354;4.970;2023-06-14T01:13:38;101619.81;;;21.83;51.20
54172;BME280;40076;52.354;4.970;2023-06-14T01:16:05;101619.00;;;21.83;50.79
54172;BME280;40076;52.354;4.970;2023-06-14T01:18:31;101621.75;;;21.79;50.72
54172;BME280;40076;52.354;4.970;2023-06-14T01:20:57;101617.78;;;21.77;50.63
54172;BME280;40076;52.354;4.970;2023-06-14T01:23:23;101617.34;;;21.75;50.76
54172;BME280;40076;52.354;4.970;2023-06-14T01:25:49;101613.41;;;21.72;50.75
54172;BME280;40076;52.354;4.970;2023-06-14T01:28:19;101614.13;;;21.66;50.79
54172;BME280;40076;52.354;4.970;2023-06-14T01:30:47;101616.81;;;21.62;51.12
54172;BME280;40076;52.354;4.970;2023-06-14T01:33:16;101610.88;;;21.60;51.68
54172;BME280;40076;52.354;4.970;2023-06-14T01:35:45;101617.56;;;21.59;52.25
54172;BME280;40076;52.354;4.970;2023-06-14T01:38:12;101610.88;;;21.56;52.87
54172;BME280;40076;52.354;4.970;2023-06-14T01:40:39;101616.72;;;21.55;53.12
54172;BME280;40076;52.354;4.970;2023-06-14T01:43:27;101616.28;;;21.49;52.96
54172;BME280;40076;52.354;4.970;2023-06-14T01:45:55;101622.50;;;21.46;52.71
54172;BME280;40076;52.354;4.970;2023-06-14T01:48:22;101617.78;;;21.43;52.82
54172;BME280;40076;52.354;4.970;2023-06-14T01:50:49;101614.97;;;21.40;52.90
54172;BME280;40076;52.354;4.970;2023-06-14T01:53:15;101622.00;;;21.37;52.64
54172;BME280;40076;52.354;4.970;2023-06-14T01:55:41;101621.53;;;21.32;52.99
54172;BME280;40076;52.354;4.970;2023-06-14T01:58:08;101620.28;;;21.26;53.00
54172;BME280;40076;52.354;4.970;2023-06-14T02:00:34;101618.28;;;21.23;53.42
54172;BME280;40076;52.354;4.970;2023-06-14T02:03:00;101615.13;;;21.21;53.29
54172;BME280;40076;52.354;4.970;2023-06-14T02:05:25;101618.13;;;21.15;53.50
54172;BME280;40076;52.354;4.970;2023-06-14T02:07:51;101623.59;;;21.12;53.36
54172;BME280;40076;52.354;4.970;2023-06-14T02:10:17;101618.84;;;21.09;53.44
54172;BME280;40076;52.354;4.970;2023-06-14T02:12:43;101613.69;;;21.04;53.58
54172;BME280;40076;52.354;4.970;2023-06-14T02:15:08;101612.81;;;21.00;53.56
54172;BME280;40076;52.354;4.970;2023-06-14T02:17:35;101608.06;;;20.97;53.76
54172;BME280;40076;52.354;4.970;2023-06-14T02:20:00;101609.97;;;20.93;53.91
54172;BME280;40076;52.354;4.970;2023-06-14T02:22:26;101611.53;;;20.90;53.86
54172;BME280;40076;52.354;4.970;2023-06-14T02:24:51;101607.53;;;20.88;54.43
54172;BME280;40076;52.354;4.970;2023-06-14T02:27:16;101605.53;;;20.85;54.37
54172;BME280;40076;52.354;4.970;2023-06-14T02:29:42;101618.06;;;20.82;54.78
54172;BME280;40076;52.354;4.970;2023-06-14T02:32:08;101615.25;;;20.78;54.92
54172;BME280;40076;52.354;4.970;2023-06-14T02:34:34;101614.03;;;20.76;54.90
54172;BME280;40076;52.354;4.970;2023-06-14T02:37:00;101621.44;;;20.72;55.24
54172;BME280;40076;52.354;4.970;2023-06-14T02:39:25;101619.41;;;20.69;55.29
54172;BME280;40076;52.354;4.970;2023-06-14T02:41:51;101618.22;;;20.66;55.32
54172;BME280;40076;52.354;4.970;2023-06-14T02:44:19;101624.44;;;20.63;55.56
54172;BME280;40076;52.354;4.970;2023-06-14T02:46:45;101627.16;;;20.63;55.70
54172;BME280;40076;52.354;4.970;2023-06-14T02:49:11;101621.59;;;20.60;55.59
54172;BME280;40076;52.354;4.970;2023-06-14T02:51:36;101627.09;;;20.60;55.36
54172;BME280;40076;52.354;4.970;2023-06-14T02:54:01;101620.41;;;20.57;55.62
54172;BME280;40076;52.354;4.970;2023-06-14T02:56:27;101632.13;;;20.54;55.50
54172;BME280;40076;52.354;4.970;2023-06-14T02:58:53;101631.69;;;20.52;55.36
54172;BME280;40076;52.354;4.970;2023-06-14T03:01:18;101630.47;;;20.50;55.25
54172;BME280;40076;52.354;4.970;2023-06-14T03:03:45;101634.75;;;20.47;55.33
54172;BME280;40076;52.354;4.970;2023-06-14T03:06:11;101642.53;;;20.45;54.89
54172;BME280;40076;52.354;4.970;2023-06-14T03:08:38;101638.53;;;20.39;55.28
54172;BME280;40076;52.354;4.970;2023-06-14T03:11:07;101642.38;;;20.34;55.25
54172;BME280;40076;52.354;4.970;2023-06-14T03:13:33;101646.59;;;20.32;55.11
54172;BME280;40076;52.354;4.970;2023-06-14T03:15:58;101648.88;;;20.26;54.83
54172;BME280;40076;52.354;4.970;2023-06-14T03:18:25;101641.72;;;20.22;54.81
54172;BME280;40076;52.354;4.970;2023-06-14T03:20:52;101645.19;;;20.19;55.04
54172;BME280;40076;52.354;4.970;2023-06-14T03:23:17;101651.41;;;20.16;55.10
54172;BME280;40076;52.354;4.970;2023-06-14T03:25:42;101654.50;;;20.14;55.46
54172;BME280;40076;52.354;4.970;2023-06-14T03:28:08;101654.91;;;20.13;55.47
54172;BME280;40076;52.354;4.970;2023-06-14T03:30:33;101656.75;;;20.09;55.37
54172;BME280;40076;52.354;4.970;2023-06-14T03:32:58;101662.59;;;20.07;55.25
54172;BME280;40076;52.354;4.970;2023-06-14T03:35:26;101662.56;;;20.03;55.52
54172;BME280;40076;52.354;4.970;2023-06-14T03:37:53;101669.09;;;19.99;55.76
54172;BME280;40076;52.354;4.970;2023-06-14T03:40:18;101672.22;;;19.97;55.98
54172;BME280;40076;52.354;4.970;2023-06-14T03:42:47;101667.47;;;19.94;56.21
54172;BME280;40076;52.354;4.970;2023-06-14T03:45:12;101670.19;;;19.94;56.37
54172;BME280;40076;52.354;4.970;2023-06-14T03:47:38;101669.41;;;19.94;56.45
54172;BME280;40076;52.354;4.970;2023-06-14T03:50:03;101672.94;;;19.94;56.51
54172;BME280;40076;52.354;4.970;2023-06-14T03:52:29;101668.63;;;19.93;56.55
54172;BME280;40076;52.354;4.970;2023-06-14T03:54:54;101666.22;;;19.92;56.72
54172;BME280;40076;52.354;4.970;2023-06-14T03:57:20;101681.53;;;19.93;56.67
54172;BME280;40076;52.354;4.970;2023-06-14T03:59:47;101677.59;;;19.90;56.60
54172;BME280;40076;52.354;4.970;2023-06-14T04:02:12;101686.59;;;19.91;56.75
54172;BME280;40076;52.354;4.970;2023-06-14T04:04:40;101688.47;;;19.87;56.77
54172;BME280;40076;52.354;4.970;2023-06-14T04:07:09;101689.63;;;19.86;56.92
54172;BME280;40076;52.354;4.970;2023-06-14T04:09:35;101697.00;;;19.82;57.12
54172;BME280;40076;52.354;4.970;2023-06-14T04:12:00;101695.75;;;19.79;57.07
54172;BME280;40076;52.354;4.970;2023-06-14T04:14:25;101701.94;;;19.76;57.25
54172;BME280;40076;52.354;4.970;2023-06-14T04:16:51;101696.84;;;19.75;57.58
54172;BME280;40076;52.354;4.970;2023-06-14T04:19:16;101699.16;;;19.73;57.71
54172;BME280;40076;52.354;4.970;2023-06-14T04:21:41;101703.03;;;19.72;57.74
54172;BME280;40076;52.354;4.970;2023-06-14T04:24:07;101711.63;;;19.70;57.56
54172;BME280;40076;52.354;4.970;2023-06-14T04:26:40;101706.06;;;19.67;56.98
54172;BME280;40076;52.354;4.970;2023-06-14T04:29:05;101707.56;;;19.64;56.72
54172;BME280;40076;52.354;4.970;2023-06-14T04:31:31;101700.84;;;19.61;56.38
54172;BME280;40076;52.354;4.970;2023-06-14T04:34:03;101710.63;;;19.59;56.04
54172;BME280;40076;52.354;4.970;2023-06-14T04:36:31;101713.63;;;19.54;55.51
54172;BME280;40076;52.354;4.970;2023-06-14T04:38:59;101708.50;;;19.52;55.09
54172;BME280;40076;52.354;4.970;2023-06-14T04:41:25;101716.66;;;19.49;55.37
54172;BME280;40076;52.354;4.970;2023-06-14T04:43:57;101713.81;;;19.45;55.33
54172;BME280;40076;52.354;4.970;2023-06-14T04:46:30;101717.25;;;19.42;55.50
54172;BME280;40076;52.354;4.970;2023-06-14T04:49:01;101714.50;;;19.42;55.11
54172;BME280;40076;52.354;4.970;2023-06-14T04:51:27;101715.31;;;19.43;54.97
54172;BME280;40076;52.354;4.970;2023-06-14T04:53:58;101714.16;;;19.44;55.34
54172;BME280;40076;52.354;4.970;2023-06-14T04:56:24;101714.16;;;19.44;55.19
54172;BME280;40076;52.354;4.970;2023-06-14T04:58:52;101716.91;;;19.44;55.53
54172;BME280;40076;52.354;4.970;2023-06-14T05:01:22;101715.31;;;19.43;55.07
54172;BME280;40076;52.354;4.970;2023-06-14T05:03:51;101716.91;;;19.44;55.18
54172;BME280;40076;52.354;4.970;2023-06-14T05:06:19;101717.69;;;19.44;55.11
54172;BME280;40076;52.354;4.970;2023-06-14T05:08:44;101721.22;;;19.45;55.21
54172;BME280;40076;52.354;4.970;2023-06-14T05:11:10;101722.72;;;19.42;54.89
54172;BME280;40076;52.354;4.970;2023-06-14T05:13:36;101714.06;;;19.40;54.68
54172;BME280;40076;52.354;4.970;2023-06-14T05:16:01;101725.81;;;19.41;54.94
54172;BME280;40076;52.354;4.970;2023-06-14T05:18:27;101720.44;;;19.44;54.83
54172;BME280;40076;52.354;4.970;2023-06-14T05:20:53;101723.97;;;19.45;55.33
54172;BME280;40076;52.354;4.970;2023-06-14T05:23:18;101726.00;;;19.48;55.38
54172;BME280;40076;52.354;4.970;2023-06-14T05:25:47;101720.19;;;19.49;55.12
54172;BME280;40076;52.354;4.970;2023-06-14T05:28:12;101728.06;;;19.51;55.22
54172;BME280;40076;52.354;4.970;2023-06-14T05:30:40;101724.16;;;19.52;55.14
54172;BME280;40076;52.354;4.970;2023-06-14T05:33:12;101722.13;;;19.49;54.88
54172;BME280;40076;52.354;4.970;2023-06-14T05:35:37;101721.03;;;19.53;54.96
54172;BME280;40076;52.354;4.970;2023-06-14T05:38:03;101721.84;;;19.54;54.91
54172;BME280;40076;52.354;4.970;2023-06-14T05:40:28;101727.41;;;19.57;54.79
54172;BME280;40076;52.354;4.970;2023-06-14T05:42:53;101731.41;;;19.60;55.07
54172;BME280;40076;52.354;4.970;2023-06-14T05:45:19;101736.16;;;19.63;54.72
54172;BME280;40076;52.354;4.970;2023-06-14T05:47:44;101735.44;;;19.66;54.66
54172;BME280;40076;52.354;4.970;2023-06-14T05:50:09;101735.88;;;19.68;54.86
54172;BME280;40076;52.354;4.970;2023-06-14T05:52:35;101742.56;;;19.71;54.98
54172;BME280;40076;52.354;4.970;2023-06-14T05:55:04;101739.13;;;19.74;54.64
54172;BME280;40076;52.354;4.970;2023-06-14T05:57:30;101744.69;;;19.77;54.70
54172;BME280;40076;52.354;4.970;2023-06-14T05:59:55;101749.91;;;19.82;54.58
54172;BME280;40076;52.354;4.970;2023-06-14T06:02:29;101749.59;;;19.87;54.50
54172;BME280;40076;52.354;4.970;2023-06-14T06:04:54;101756.69;;;19.88;54.23
54172;BME280;40076;52.354;4.970;2023-06-14T06:07:19;101756.38;;;19.93;54.81
54172;BME280;40076;52.354;4.970;2023-06-14T06:09:45;101755.31;;;19.98;54.35
54172;BME280;40076;52.354;4.970;2023-06-14T06:12:10;101759.28;;;20.00;54.14
54172;BME280;40076;52.354;4.970;2023-06-14T06:14:36;101759.72;;;20.02;53.86
54172;BME280;40076;52.354;4.970;2023-06-14T06:17:01;101751.59;;;20.06;53.98
54172;BME280;40076;52.354;4.970;2023-06-14T06:19:27;101756.28;;;20.06;54.20
54172;BME280;40076;52.354;4.970;2023-06-14T06:21:52;101759.88;;;20.10;54.24
54172;BME280;40076;52.354;4.970;2023-06-14T06:24:17;101758.28;;;20.09;54.29
54172;BME280;40076;52.354;4.970;2023-06-14T06:26:43;101757.13;;;20.10;54.23
54172;BME280;40076;52.354;4.970;2023-06-14T06:29:08;101761.09;;;20.12;54.18
54172;BME280;40076;52.354;4.970;2023-06-14T06:31:34;101760.75;;;20.14;53.95
54172;BME280;40076;52.354;4.970;2023-06-14T06:34:00;101762.75;;;20.17;54.02
54172;BME280;40076;52.354;4.970;2023-06-14T06:36:26;101753.38;;;20.18;54.08
54172;BME280;40076;52.354;4.970;2023-06-14T06:38:51;101763.25;;;20.22;54.00
54172;BME280;40076;52.354;4.970;2023-06-14T06:41:27;101760.59;;;20.26;54.36
54172;BME280;40076;52.354;4.970;2023-06-14T06:43:52;101763.38;;;20.29;54.03
54172;BME280;40076;52.354;4.970;2023-06-14T06:46:17;101766.22;;;20.33;54.45
54172;BME280;40076;52.354;4.970;2023-06-14T06:48:44;101766.75;;;20.38;54.28
54172;BME280;40076;52.354;4.970;2023-06-14T06:51:09;101775.50;;;20.44;54.01
54172;BME280;40076;52.354;4.970;2023-06-14T06:53:35;101775.56;;;20.48;53.75
54172;BME280;40076;52.354;4.970;2023-06-14T06:56:00;101780.72;;;20.53;53.60
54172;BME280;40076;52.354;4.970;2023-06-14T06:58:32;101778.88;;;20.57;53.57
54172;BME280;40076;52.354;4.970;2023-06-14T07:01:23;101773.88;;;20.62;53.69
54172;BME280;40076;52.354;4.970;2023-06-14T07:04:01;101779.00;;;20.64;53.57
54172;BME280;40076;52.354;4.970;2023-06-14T07:06:35;101788.38;;;20.63;53.67
54172;BME280;40076;52.354;4.970;2023-06-14T07:09:03;101776.31;;;20.67;53.38
54172;BME280;40076;52.354;4.970;2023-06-14T07:11:39;101780.63;;;20.68;53.19
54172;BME280;40076;52.354;4.970;2023-06-14T07:14:07;101782.66;;;20.71;53.15
54172;BME280;40076;52.354;4.970;2023-06-14T07:16:32;101788.66;;;20.77;53.18
54172;BME280;40076;52.354;4.970;2023-06-14T07:18:58;101792.28;;;20.81;52.78
54172;BME280;40076;52.354;4.970;2023-06-14T07:21:23;101787.19;;;20.83;52.93
54172;BME280;40076;52.354;4.970;2023-06-14T07:23:51;101794.00;;;20.89;53.11
54172;BME280;40076;52.354;4.970;2023-06-14T07:26:17;101795.63;;;20.94;52.74
54172;BME280;40076;52.354;4.970;2023-06-14T07:28:42;101808.66;;;20.97;52.26
54172;BME280;40076;52.354;4.970;2023-06-14T07:31:10;101811.06;;;21.02;52.33
54172;BME280;40076;52.354;4.970;2023-06-14T07:33:36;101817.06;;;21.07;52.26
54172;BME280;40076;52.354;4.970;2023-06-14T07:36:02;101815.19;;;21.11;51.91
54172;BME280;40076;52.354;4.970;2023-06-14T07:38:28;101820.31;;;21.13;51.42
54172;BME280;40076;52.354;4.970;2023-06-14T07:40:53;101817.72;;;21.20;50.76
54172;BME280;40076;52.354;4.970;2023-06-14T07:43:19;101818.13;;;21.22;50.67
54172;BME280;40076;52.354;4.970;2023-06-14T07:45:44;101820.16;;;21.25;50.46
54172;BME280;40076;52.354;4.970;2023-06-14T07:48:10;101817.06;;;21.30;50.51
54172;BME280;40076;52.354;4.970;2023-06-14T07:50:38;101812.44;;;21.34;50.40
54172;BME280;40076;52.354;4.970;2023-06-14T07:53:04;101811.28;;;21.35;50.11
54172;BME280;40076;52.354;4.970;2023-06-14T07:55:29;101811.69;;;21.37;49.71
54172;BME280;40076;52.354;4.970;2023-06-14T07:57:57;101815.75;;;21.43;49.81
54172;BME280;40076;52.354;4.970;2023-06-14T08:00:23;101821.72;;;21.49;50.51
54172;BME280;40076;52.354;4.970;2023-06-14T08:02:49;101824.56;;;21.56;50.34
54172;BME280;40076;52.354;4.970;2023-06-14T08:05:15;101829.81;;;21.65;50.12
54172;BME280;40076;52.354;4.970;2023-06-14T08:07:40;101831.09;;;21.71;49.62
54172;BME280;40076;52.354;4.970;2023-06-14T08:10:06;101830.75;;;21.76;49.25
54172;BME280;40076;52.354;4.970;2023-06-14T08:12:37;101829.66;;;21.80;48.45
54172;BME280;40076;52.354;4.970;2023-06-14T08:15:03;101832.88;;;21.86;48.25
54172;BME280;40076;52.354;4.970;2023-06-14T08:17:29;101834.50;;;21.90;47.95
54172;BME280;40076;52.354;4.970;2023-06-14T08:19:54;101829.06;;;21.94;47.46
54172;BME280;40076;52.354;4.970;2023-06-14T08:22:23;101828.34;;;21.97;47.25
54172;BME280;40076;52.354;4.970;2023-06-14T08:24:53;101827.66;;;22.04;47.64
54172;BME280;40076;52.354;4.970;2023-06-14T08:27:19;101821.44;;;22.10;47.66
54172;BME280;40076;52.354;4.970;2023-06-14T08:29:45;101828.22;;;22.16;47.88
54172;BME280;40076;52.354;4.970;2023-06-14T08:32:10;101825.91;;;22.22;47.34
54172;BME280;40076;52.354;4.970;2023-06-14T08:34:36;101823.25;;;22.29;47.32
54172;BME280;40076;52.354;4.970;2023-06-14T08:40:22;101823.06;;;22.45;46.84
54172;BME280;40076;52.354;4.970;2023-06-14T08:42:57;101822.34;;;22.51;46.82
54172;BME280;40076;52.354;4.970;2023-06-14T08:45:35;101821.66;;;22.58;46.25
54172;BME280;40076;52.354;4.970;2023-06-14T08:48:11;101823.28;;;22.66;46.26
54172;BME280;40076;52.354;4.970;2023-06-14T08:51:05;101822.97;;;22.71;45.54
54172;BME280;40076;52.354;4.970;2023-06-14T08:53:57;101827.78;;;22.78;44.88
54172;BME280;40076;52.354;4.970;2023-06-14T08:57:12;101822.28;;;22.81;44.39
54172;BME280;40076;52.354;4.970;2023-06-14T09:03:33;101824.38;;;22.91;44.01
54172;BME280;40076;52.354;4.970;2023-06-14T09:06:27;101825.59;;;22.97;43.36
54172;BME280;40076;52.354;4.970;2023-06-14T09:09:00;101826.44;;;23.01;43.34
54172;BME280;40076;52.354;4.970;2023-06-14T09:11:42;101828.09;;;23.09;43.37
54172;BME280;40076;52.354;4.970;2023-06-14T09:14:12;101829.34;;;23.16;42.94
54172;BME280;40076;52.354;4.970;2023-06-14T09:16:38;101823.88;;;23.23;42.47
54172;BME280;40076;52.354;4.970;2023-06-14T09:19:03;101825.53;;;23.31;42.37
54172;BME280;40076;52.354;4.970;2023-06-14T09:21:34;101822.00;;;23.34;41.98
54172;BME280;40076;52.354;4.970;2023-06-14T09:24:01;101819.31;;;23.41;42.66
54172;BME280;40076;52.354;4.970;2023-06-14T09:26:27;101824.09;;;23.47;42.32
54172;BME280;40076;52.354;4.970;2023-06-14T09:28:52;101832.06;;;23.56;41.55
54172;BME280;40076;52.354;4.970;2023-06-14T09:31:20;101826.97;;;23.62;40.48
54172;BME280;40076;52.354;4.970;2023-06-14T09:33:51;101825.41;;;23.64;40.63
54172;BME280;40076;52.354;4.970;2023-06-14T09:36:25;101825.84;;;23.70;41.10
54172;BME280;40076;52.354;4.970;2023-06-14T09:41:39;101829.91;;;23.87;40.28
54172;BME280;40076;52.354;4.970;2023-06-14T09:44:09;101833.44;;;23.87;39.71
54172;BME280;40076;52.354;4.970;2023-06-14T09:46:35;101831.50;;;23.91;39.25
54172;BME280;40076;52.354;4.970;2023-06-14T09:49:02;101828.34;;;23.96;38.66
54172;BME280;40076;52.354;4.970;2023-06-14T09:51:28;101840.22;;;24.00;39.31
54172;BME280;40076;52.354;4.970;2023-06-14T09:54:02;101840.63;;;24.06;38.27
54172;BME280;40076;52.354;4.970;2023-06-14T09:56:31;101833.19;;;24.10;38.38
54172;BME280;40076;52.354;4.970;2023-06-14T09:58:59;101842.25;;;24.14;38.17
54172;BME280;40076;52.354;4.970;2023-06-14T10:01:26;101832.41;;;24.16;38.06
54172;BME280;40076;52.354;4.970;2023-06-14T10:03:55;101836.03;;;24.24;37.80
54172;BME280;40076;52.354;4.970;2023-06-14T10:06:25;101839.22;;;24.30;37.74
54172;BME280;40076;52.354;4.970;2023-06-14T10:08:53;101839.25;;;24.33;37.22
54172;BME280;40076;52.354;4.970;2023-06-14T10:11:21;101839.25;;;24.37;37.57
54172;BME280;40076;52.354;4.970;2023-06-14T10:13:47;101835.72;;;24.43;38.30
54172;BME280;40076;52.354;4.970;2023-06-14T10:16:19;101835.72;;;24.50;38.15
54172;BME280;40076;52.354;4.970;2023-06-14T10:18:57;101836.94;;;24.56;38.01
54172;BME280;40076;52.354;4.970;2023-06-14T10:22:06;101842.47;;;24.60;37.30
54172;BME280;40076;52.354;4.970;2023-06-14T10:24:40;101837.75;;;24.60;36.98
54172;BME280;40076;52.354;4.970;2023-06-14T10:27:07;101836.97;;;24.64;36.96
54172;BME280;40076;52.354;4.970;2023-06-14T10:32:21;101834.59;;;24.66;37.89
54172;BME280;40076;52.354;4.970;2023-06-14T10:35:09;101833.41;;;24.67;38.24
54172;BME280;40076;52.354;4.970;2023-06-14T10:37:40;101834.22;;;24.71;38.89
54172;BME280;40076;52.354;4.970;2023-06-14T10:40:06;101829.50;;;24.71;39.12
54172;BME280;40076;52.354;4.970;2023-06-14T10:42:33;101823.16;;;24.71;39.14
54172;BME280;40076;52.354;4.970;2023-06-14T10:45:00;101832.25;;;24.75;37.67
54172;BME280;40076;52.354;4.970;2023-06-14T10:47:33;101834.63;;;24.80;38.56
54172;BME280;40076;52.354;4.970;2023-06-14T10:50:10;101827.53;;;24.86;38.65
54172;BME280;40076;52.354;4.970;2023-06-14T10:52:40;101832.31;;;24.92;38.73
54172;BME280;40076;52.354;4.970;2023-06-14T10:55:13;101841.00;;;24.98;38.89
54172;BME280;40076;52.354;4.970;2023-06-14T10:57:45;101839.06;;;25.02;38.89
54172;BME280;40076;52.354;4.970;2023-06-14T11:00:12;101833.91;;;25.04;40.29
54172;BME280;40076;52.354;4.970;2023-06-14T11:02:58;101833.91;;;25.08;39.96
54172;BME280;40076;52.354;4.970;2023-06-14T11:05:30;101843.41;;;25.07;39.46
54172;BME280;40076;52.354;4.970;2023-06-14T11:08:23;101840.22;;;25.05;39.72
54172;BME280;40076;52.354;4.970;2023-06-14T11:10:54;101835.88;;;25.04;39.93
54172;BME280;40076;52.354;4.970;2023-06-14T11:13:24;101842.22;;;25.01;40.20
54172;BME280;40076;52.354;4.970;2023-06-14T11:15:50;101841.03;;;25.02;39.76
54172;BME280;40076;52.354;4.970;2023-06-14T11:18:18;101843.00;;;25.05;39.60
54172;BME280;40076;52.354;4.970;2023-06-14T11:20:46;101829.97;;;25.05;39.18
54172;BME280;40076;52.354;4.970;2023-06-14T11:23:11;101839.84;;;25.06;39.69
54172;BME280;40076;52.354;4.970;2023-06-14T11:25:39;101840.63;;;25.07;40.97
54172;BME280;40076;52.354;4.970;2023-06-14T11:28:05;101831.13;;;25.11;41.00
54172;BME280;40076;52.354;4.970;2023-06-14T11:30:30;101833.13;;;25.14;40.99
54172;BME280;40076;52.354;4.970;2023-06-14T11:32:55;101824.81;;;25.18;40.53
54172;BME280;40076;52.354;4.970;2023-06-14T11:35:22;101826.00;;;25.20;40.78
54172;BME280;40076;52.354;4.970;2023-06-14T11:37:54;101828.00;;;25.27;40.54
54172;BME280;40076;52.354;4.970;2023-06-14T11:40:24;101816.53;;;25.28;40.09
54172;BME280;40076;52.354;4.970;2023-06-14T11:43:00;101821.66;;;25.33;41.32
54172;BME280;40076;52.354;4.970;2023-06-14T11:45:26;101801.13;;;25.38;40.70
54172;BME280;40076;52.354;4.970;2023-06-14T11:47:54;101819.69;;;25.37;39.81
54172;BME280;40076;52.354;4.970;2023-06-14T11:50:22;101815.75;;;25.38;40.49
54172;BME280;40076;52.354;4.970;2023-06-14T11:52:55;101817.34;;;25.40;40.92
54172;BME280;40076;52.354;4.970;2023-06-14T11:55:22;101810.59;;;25.44;39.37
54172;BME280;40076;52.354;4.970;2023-06-14T11:57:47;101820.47;;;25.49;39.35
54172;BME280;40076;52.354;4.970;2023-06-14T12:00:13;101815.72;;;25.53;39.75
54172;BME280;40076;52.354;4.970;2023-06-14T12:02:41;101817.69;;;25.56;39.62
54172;BME280;40076;52.354;4.970;2023-06-14T12:05:07;101823.66;;;25.61;39.33
54172;BME280;40076;52.354;4.970;2023-06-14T12:07:37;101821.66;;;25.65;39.10
54172;BME280;40076;52.354;4.970;2023-06-14T12:10:06;101818.09;;;25.65;39.82
54172;BME280;40076;52.354;4.970;2023-06-14T12:12:36;101821.28;;;25.67;39.52
54172;BME280;40076;52.354;4.970;2023-06-14T12:15:06;101817.72;;;25.70;39.56
54172;BME280;40076;52.354;4.970;2023-06-14T12:17:36;101813.34;;;25.72;39.65
54172;BME280;40076;52.354;4.970;2023-06-14T12:20:10;101820.06;;;25.75;39.71
54172;BME280;40076;52.354;4.970;2023-06-14T12:26:37;101816.50;;;25.78;38.98
54172;BME280;40076;52.354;4.970;2023-06-14T12:39:13;101815.28;;;25.93;39.75
54172;BME280;40076;52.354;4.970;2023-06-14T12:41:42;101811.69;;;26.00;39.73
54172;BME280;40076;52.354;4.970;2023-06-14T12:44:25;101812.84;;;26.02;39.57
54172;BME280;40076;52.354;4.970;2023-06-14T12:50:12;101819.59;;;26.08;40.27
54172;BME280;40076;52.354;4.970;2023-06-14T12:52:39;101821.53;;;26.11;39.93
54172;BME280;40076;52.354;4.970;2023-06-14T13:07:12;101814.75;;;26.34;39.74
54172;BME280;40076;52.354;4.970;2023-06-14T13:09:40;101813.13;;;26.40;39.32
54172;BME280;40076;52.354;4.970;2023-06-14T13:12:06;101819.44;;;26.44;38.93
54172;BME280;40076;52.354;4.970;2023-06-14T13:14:31;101823.41;;;26.43;39.70
54172;BME280;40076;52.354;4.970;2023-06-14T13:17:03;101812.34;;;26.43;39.34
54172;BME280;40076;52.354;4.970;2023-06-14T13:19:30;101818.22;;;26.48;39.33
54172;BME280;40076;52.354;4.970;2023-06-14T13:22:04;101819.81;;;26.49;39.07
54172;BME280;40076;52.354;4.970;2023-06-14T13:24:32;101824.56;;;26.52;38.38
54172;BME280;40076;52.354;4.970;2023-06-14T13:27:00;101824.16;;;26.54;38.01
54172;BME280;40076;52.354;4.970;2023-06-14T13:29:26;101826.94;;;26.54;37.79
54172;BME280;40076;52.354;4.970;2023-06-14T13:32:05;101815.41;;;26.59;37.81
54172;BME280;40076;52.354;4.970;2023-06-14T13:34:38;101826.06;;;26.64;37.02
54172;BME280;40076;52.354;4.970;2023-06-14T13:37:13;101817.75;;;26.68;36.51
54172;BME280;40076;52.354;4.970;2023-06-14T13:39:44;101810.19;;;26.72;36.31